createdAt,value
2019-05-29T00:00:21.275Z,1.83
2019-05-29T00:02:50.331Z,1.70
2019-05-29T00:05:19.364Z,1.90
2019-05-29T00:07:48.359Z,1.83
2019-05-29T00:10:18.574Z,1.90
2019-05-29T00:12:47.580Z,1.80
2019-05-29T00:15:16.616Z,1.87
2019-05-29T00:17:45.594Z,2.67
2019-05-29T00:20:14.724Z,1.70
2019-05-29T00:22:43.701Z,2.07
2019-05-29T00:25:12.667Z,2.60
2019-05-29T00:27:41.623Z,1.87
2019-05-29T00:30:13.381Z,1.93
2019-05-29T00:32:42.462Z,2.30
2019-05-29T00:35:12.252Z,2.20
2019-05-29T00:37:41.317Z,2.40
2019-05-29T00:40:10.929Z,2.20
2019-05-29T00:42:40.395Z,1.93
2019-05-29T00:45:09.768Z,2.57
2019-05-29T00:47:38.833Z,1.70
2019-05-29T00:50:08.092Z,2.13
2019-05-29T00:52:37.096Z,2.30
2019-05-29T00:55:06.195Z,2.30
2019-05-29T00:57:35.216Z,2.10
2019-05-29T01:00:04.321Z,2.50
2019-05-29T01:02:33.420Z,2.20
2019-05-29T01:05:02.501Z,2.57
2019-05-29T01:07:31.602Z,2.43
2019-05-29T01:10:00.652Z,2.67
2019-05-29T01:12:29.760Z,2.40
2019-05-29T01:14:58.786Z,2.60
2019-05-29T01:17:27.874Z,2.40
2019-05-29T01:19:56.869Z,3.03
2019-05-29T01:22:25.906Z,2.73
2019-05-29T01:24:54.915Z,2.90
2019-05-29T01:27:23.955Z,2.73
2019-05-29T01:29:53.031Z,2.87
2019-05-29T01:32:22.118Z,3.60
2019-05-29T01:34:51.138Z,2.97
2019-05-29T01:37:20.352Z,3.20
2019-05-29T01:39:49.309Z,3.67
2019-05-29T01:42:19.459Z,3.27
2019-05-29T01:44:48.563Z,3.40
2019-05-29T01:47:17.590Z,3.57
2019-05-29T01:49:46.679Z,3.40
2019-05-29T01:52:15.804Z,4.50
2019-05-29T01:54:44.873Z,3.47
2019-05-29T01:57:13.979Z,3.07
2019-05-29T01:59:43.006Z,3.63
2019-05-29T02:02:12.366Z,4.30
2019-05-29T02:04:41.383Z,3.70
2019-05-29T02:07:10.472Z,3.97
2019-05-29T02:09:39.523Z,4.30
2019-05-29T02:12:08.595Z,4.20
2019-05-29T02:14:37.547Z,4.17
2019-05-29T02:17:06.606Z,4.43
2019-05-29T02:19:35.691Z,3.93
2019-05-29T02:22:04.826Z,4.10
2019-05-29T02:24:33.880Z,3.97
2019-05-29T02:27:03.088Z,5.03
2019-05-29T02:29:32.125Z,4.00
2019-05-29T02:32:01.278Z,5.07
2019-05-29T02:34:30.418Z,4.23
2019-05-29T02:36:59.574Z,4.47
2019-05-29T02:39:29.388Z,4.83
2019-05-29T02:41:58.648Z,4.93
2019-05-29T02:44:28.241Z,4.70
2019-05-29T02:46:58.655Z,5.07
2019-05-29T02:49:28.210Z,5.20
2019-05-29T02:51:57.594Z,5.33
2019-05-29T02:54:27.690Z,5.03
2019-05-29T02:56:57.435Z,5.70
2019-05-29T02:59:27.650Z,4.87
2019-05-29T03:01:57.194Z,4.47
2019-05-29T03:04:26.701Z,5.20
2019-05-29T03:06:57.201Z,4.93
2019-05-29T03:09:26.647Z,5.57
2019-05-29T03:11:59.897Z,4.63
2019-05-29T03:14:27.350Z,5.07
2019-05-29T03:16:56.378Z,5.37
2019-05-29T03:19:25.954Z,6.30
2019-05-29T03:21:55.130Z,6.30
2019-05-29T03:24:24.541Z,5.87
2019-05-29T03:26:54.109Z,6.43
2019-05-29T03:29:23.179Z,5.97
2019-05-29T03:31:52.258Z,5.87
2019-05-29T03:34:21.338Z,6.50
2019-05-29T03:36:50.414Z,6.67
2019-05-29T03:39:19.407Z,6.80
2019-05-29T03:41:48.487Z,6.60
2019-05-29T03:44:17.542Z,6.80
2019-05-29T03:46:46.603Z,6.00
2019-05-29T03:49:15.673Z,5.83
2019-05-29T03:51:44.799Z,6.83
2019-05-29T03:54:13.876Z,7.30
2019-05-29T03:56:42.956Z,6.50
2019-05-29T03:59:12.101Z,6.97
2019-05-29T04:01:41.194Z,7.27
2019-05-29T04:04:10.205Z,6.90
2019-05-29T04:06:39.290Z,7.27
2019-05-29T04:09:08.449Z,6.83
2019-05-29T04:11:38.677Z,7.40
2019-05-29T04:14:07.797Z,7.10
2019-05-29T04:16:57.777Z,7.30
2019-05-29T04:19:08.934Z,7.97
2019-05-29T04:21:38.805Z,7.23
2019-05-29T04:24:07.956Z,8.17
2019-05-29T04:26:40.581Z,7.97
2019-05-29T04:29:10.147Z,6.73
2019-05-29T04:31:39.202Z,7.30
2019-05-29T04:34:08.262Z,8.10
2019-05-29T04:36:38.860Z,8.17
2019-05-29T04:39:08.217Z,7.63
2019-05-29T04:41:38.720Z,7.77
2019-05-29T04:44:08.137Z,7.70
2019-05-29T04:46:38.501Z,9.03
2019-05-29T04:49:08.071Z,7.83
2019-05-29T04:51:37.518Z,8.77
2019-05-29T04:54:06.617Z,8.03
2019-05-29T04:56:36.913Z,9.53
2019-05-29T04:59:06.005Z,7.80
2019-05-29T05:01:35.131Z,7.53
2019-05-29T05:04:04.212Z,8.93
2019-05-29T05:06:33.291Z,8.10
2019-05-29T05:09:02.394Z,7.83
2019-05-29T05:11:31.529Z,7.70
2019-05-29T05:14:01.777Z,6.90
2019-05-29T05:16:31.659Z,6.87
2019-05-29T05:19:00.863Z,5.73
2019-05-29T05:21:30.006Z,5.30
2019-05-29T05:23:59.140Z,4.97
2019-05-29T05:26:28.301Z,5.10
2019-05-29T05:28:57.435Z,5.10
2019-05-29T05:31:26.550Z,4.67
2019-05-29T05:33:55.646Z,4.43
2019-05-29T05:36:24.954Z,4.90
2019-05-29T05:38:54.013Z,4.73
2019-05-29T05:41:23.031Z,4.73
2019-05-29T05:43:52.281Z,5.60
2019-05-29T05:46:24.688Z,4.40
2019-05-29T05:48:52.257Z,4.10
2019-05-29T05:51:21.473Z,4.47
2019-05-29T05:53:50.560Z,3.80
2019-05-29T05:56:19.675Z,3.60
2019-05-29T05:58:48.754Z,4.67
2019-05-29T06:01:17.820Z,4.03
2019-05-29T06:03:46.928Z,3.40
2019-05-29T06:06:16.040Z,4.00
2019-05-29T06:08:45.304Z,4.13
2019-05-29T06:11:14.374Z,3.53
2019-05-29T06:13:43.662Z,3.50
2019-05-29T06:16:12.788Z,2.97
2019-05-29T06:18:43.025Z,3.13
2019-05-29T06:21:12.373Z,3.03
2019-05-29T06:23:41.672Z,3.20
2019-05-29T06:26:10.844Z,3.20
2019-05-29T06:28:41.276Z,2.97
2019-05-29T06:31:10.439Z,2.90
2019-05-29T06:33:39.584Z,2.63
2019-05-29T06:36:08.746Z,2.63
2019-05-29T06:38:37.849Z,2.90
2019-05-29T06:41:06.950Z,2.53
2019-05-29T06:43:36.088Z,2.70
2019-05-29T06:46:05.253Z,2.30
2019-05-29T06:48:53.632Z,2.03
2019-05-29T06:51:05.187Z,2.30
2019-05-29T06:53:35.537Z,2.10
2019-05-29T06:56:04.896Z,2.10
2019-05-29T06:58:34.277Z,2.20
2019-05-29T07:01:03.303Z,2.50
2019-05-29T07:03:32.446Z,2.20
2019-05-29T07:06:01.572Z,2.20
2019-05-29T07:08:38.806Z,2.17
2019-05-29T07:11:01.513Z,2.07
2019-05-29T07:13:34.688Z,1.60
2019-05-29T07:16:01.349Z,1.90
2019-05-29T07:18:30.523Z,1.87
2019-05-29T07:20:59.643Z,1.80
2019-05-29T07:23:28.728Z,1.80
2019-05-29T07:25:57.688Z,2.00
2019-05-29T07:28:27.194Z,8.30
2019-05-29T07:31:02.266Z,2.17
2019-05-29T07:33:27.112Z,2.20
2019-05-29T07:35:56.235Z,1.57
2019-05-29T07:38:25.271Z,1.90
2019-05-29T07:40:54.321Z,1.77
2019-05-29T07:43:23.327Z,1.67
2019-05-29T07:45:52.375Z,1.90
2019-05-29T07:48:21.411Z,1.53
2019-05-29T07:51:04.319Z,1.47
2019-05-29T07:53:21.213Z,1.30
2019-05-29T07:55:50.273Z,1.90
2019-05-29T07:58:19.350Z,1.93
2019-05-29T08:01:09.616Z,1.53
2019-05-29T08:03:19.304Z,1.40
2019-05-29T08:05:51.555Z,1.30
2019-05-29T08:08:19.238Z,1.53
2019-05-29T08:10:49.686Z,1.03
2019-05-29T08:13:18.902Z,0.90
2019-05-29T08:15:59.915Z,0.80
2019-05-29T08:18:19.016Z,0.93
2019-05-29T08:20:48.243Z,1.00
2019-05-29T08:23:17.176Z,0.90
2019-05-29T08:25:47.513Z,1.40
2019-05-29T08:28:16.678Z,1.15
2019-05-29T08:30:51.770Z,0.70
2019-05-29T08:33:16.591Z,0.90
2019-05-29T08:35:45.495Z,0.88
2019-05-29T08:38:14.560Z,0.90
2019-05-29T08:40:43.653Z,0.70
2019-05-29T08:43:12.685Z,0.60
2019-05-29T08:45:41.745Z,0.68
2019-05-29T08:48:10.948Z,0.80
2019-05-29T08:50:40.016Z,0.80
2019-05-29T08:53:09.202Z,0.70
2019-05-29T08:55:38.291Z,0.80
2019-05-29T08:58:07.388Z,0.53
2019-05-29T09:00:36.486Z,0.50
2019-05-29T09:03:05.859Z,0.55
2019-05-29T09:05:34.945Z,0.60
2019-05-29T09:08:03.948Z,0.60
2019-05-29T09:10:33.019Z,0.70
2019-05-29T09:13:05.120Z,0.70
2019-05-29T09:15:32.767Z,0.80
2019-05-29T09:18:01.849Z,0.60
2019-05-29T09:20:57.378Z,0.50
2019-05-29T09:23:01.694Z,0.65
2019-05-29T09:25:30.722Z,0.90
2019-05-29T09:27:59.790Z,0.60
2019-05-29T09:30:28.987Z,0.50
2019-05-29T09:32:57.992Z,0.68
2019-05-29T09:35:27.005Z,0.50
2019-05-29T09:37:56.162Z,0.70
2019-05-29T09:40:25.264Z,0.70
2019-05-29T09:42:54.466Z,0.60
2019-05-29T09:45:23.548Z,0.80
2019-05-29T09:47:52.628Z,0.70
2019-05-29T09:50:25.052Z,0.82
2019-05-29T09:52:54.453Z,0.65
2019-05-29T09:55:23.199Z,0.68
2019-05-29T09:57:53.763Z,0.80
2019-05-29T10:00:23.125Z,0.82
2019-05-29T10:02:52.816Z,0.80
2019-05-29T10:05:22.879Z,0.80
2019-05-29T10:07:53.141Z,0.75
2019-05-29T10:10:22.813Z,0.80
2019-05-29T10:12:52.061Z,0.93
2019-05-29T10:15:21.081Z,0.93
2019-05-29T10:17:50.216Z,1.10
2019-05-29T10:20:19.335Z,0.90
2019-05-29T10:22:48.404Z,1.00
2019-05-29T10:25:17.433Z,0.80
2019-05-29T10:27:47.185Z,0.75
2019-05-29T10:30:16.361Z,0.75
2019-05-29T10:32:46.251Z,0.80
2019-05-29T10:35:15.355Z,0.82
2019-05-29T10:37:44.600Z,0.93
2019-05-29T10:40:13.657Z,0.90
2019-05-29T10:42:43.136Z,0.90
2019-05-29T10:45:12.203Z,0.70
2019-05-29T10:47:41.235Z,1.57
2019-05-29T10:50:10.831Z,1.27
2019-05-29T10:52:39.977Z,1.32
2019-05-29T10:55:09.167Z,1.10
2019-05-29T10:57:38.246Z,1.00
2019-05-29T11:00:07.391Z,1.07
2019-05-29T11:02:36.430Z,1.25
2019-05-29T11:05:05.870Z,0.98
2019-05-29T11:07:34.921Z,1.10
2019-05-29T11:10:03.991Z,1.20
2019-05-29T11:12:33.044Z,1.20
2019-05-29T11:15:19.908Z,1.32
2019-05-29T11:17:32.886Z,1.45
2019-05-29T11:20:01.876Z,1.37
2019-05-29T11:22:30.949Z,1.00
2019-05-29T11:25:20.680Z,0.82
2019-05-29T11:27:30.935Z,0.70
2019-05-29T11:30:00.224Z,0.70
2019-05-29T11:32:29.301Z,0.68
2019-05-29T11:34:59.667Z,0.70
2019-05-29T11:37:28.764Z,0.57
2019-05-29T11:39:59.011Z,0.80
2019-05-29T11:42:28.342Z,0.60
2019-05-29T11:44:57.428Z,0.55
2019-05-29T11:47:26.493Z,0.70
2019-05-29T11:49:55.557Z,0.88
2019-05-29T11:52:26.519Z,0.60
2019-05-29T11:54:59.169Z,0.70
2019-05-29T11:57:26.193Z,0.93
2019-05-29T11:59:56.036Z,1.00
2019-05-29T12:02:26.091Z,1.20
2019-05-29T12:04:55.238Z,0.90
2019-05-29T12:07:24.326Z,1.10
2019-05-29T12:09:55.322Z,0.80
2019-05-29T12:12:24.508Z,0.80
2019-05-29T12:15:05.999Z,0.77
2019-05-29T12:17:24.368Z,0.70
2019-05-29T12:19:54.136Z,0.70
2019-05-29T12:22:23.165Z,0.60
2019-05-29T12:24:52.547Z,0.70
2019-05-29T12:27:21.641Z,1.57
2019-05-29T12:29:50.737Z,1.67
2019-05-29T12:32:19.784Z,1.10
2019-05-29T12:34:53.780Z,0.50
2019-05-29T12:37:19.686Z,0.80
2019-05-29T12:39:48.713Z,0.60
2019-05-29T12:42:17.793Z,0.60
2019-05-29T12:44:46.821Z,1.17
2019-05-29T12:47:15.907Z,0.70
2019-05-29T12:49:45.013Z,0.60
2019-05-29T12:52:14.043Z,0.70
2019-05-29T12:54:43.158Z,0.67
2019-05-29T12:57:12.230Z,0.67
2019-05-29T12:59:43.748Z,0.80
2019-05-29T13:02:13.172Z,0.77
2019-05-29T13:05:06.331Z,0.60
2019-05-29T13:07:13.114Z,0.50
2019-05-29T13:09:42.135Z,0.63
2019-05-29T13:12:11.262Z,0.60
2019-05-29T13:14:40.276Z,0.67
2019-05-29T13:17:09.310Z,0.63
2019-05-29T13:19:38.348Z,0.60
2019-05-29T13:22:09.018Z,0.50
2019-05-29T13:24:38.091Z,0.70
2019-05-29T13:27:07.213Z,0.60
2019-05-29T13:29:36.319Z,0.50
2019-05-29T13:32:07.334Z,0.60
2019-05-29T13:34:36.244Z,0.60
2019-05-29T13:37:08.102Z,0.60
2019-05-29T13:39:36.116Z,0.80
2019-05-29T13:42:10.754Z,0.63
2019-05-29T13:44:35.977Z,0.70
2019-05-29T13:47:06.217Z,0.70
2019-05-29T13:49:35.448Z,0.80
2019-05-29T13:52:09.990Z,0.60
2019-05-29T13:54:35.317Z,0.80
2019-05-29T13:57:05.114Z,0.90
2019-05-29T13:59:35.166Z,0.80
2019-05-29T14:02:06.232Z,1.07
2019-05-29T14:04:35.067Z,0.70
2019-05-29T14:07:04.928Z,0.70
2019-05-29T14:09:34.597Z,0.80
2019-05-29T14:12:05.096Z,0.67
2019-05-29T14:14:34.367Z,0.70
2019-05-29T14:17:04.552Z,0.60
2019-05-29T14:19:33.699Z,0.90
2019-05-29T14:22:03.059Z,0.80
2019-05-29T14:24:32.204Z,0.90
2019-05-29T14:27:01.658Z,0.80
2019-05-29T14:29:30.741Z,1.10
2019-05-29T14:32:00.986Z,1.10
2019-05-29T14:34:30.186Z,1.20
2019-05-29T14:36:59.213Z,0.83
2019-05-29T14:39:28.232Z,0.87
2019-05-29T14:41:57.253Z,1.07
2019-05-29T14:44:26.453Z,0.40
2019-05-29T14:46:55.502Z,0.70
2019-05-29T14:49:27.003Z,0.87
2019-05-29T14:51:55.402Z,0.50
2019-05-29T14:54:40.639Z,0.50
2019-05-29T14:56:55.345Z,2.40
2019-05-29T14:59:24.480Z,0.90
2019-05-29T15:01:53.516Z,0.73
2019-05-29T15:04:22.607Z,1.10
2019-05-29T15:06:51.776Z,0.90
2019-05-29T15:09:20.783Z,1.10
2019-05-29T15:11:49.946Z,1.33
2019-05-29T15:14:19.100Z,1.00
2019-05-29T15:16:48.149Z,0.60
2019-05-29T15:19:17.226Z,0.50
2019-05-29T15:21:46.265Z,0.60
2019-05-29T15:24:15.892Z,0.77
2019-05-29T15:26:45.076Z,0.80
2019-05-29T15:29:16.164Z,1.20
2019-05-29T15:31:44.874Z,0.90
2019-05-29T15:34:14.429Z,0.60
2019-05-29T15:36:43.655Z,0.60
2019-05-29T15:39:12.746Z,0.70
2019-05-29T15:41:41.743Z,0.90
2019-05-29T15:44:10.889Z,0.80
2019-05-29T15:46:39.971Z,1.70
2019-05-29T15:49:10.994Z,0.83
2019-05-29T15:51:40.186Z,0.70
2019-05-29T15:54:09.238Z,1.27
2019-05-29T15:56:38.306Z,0.90
2019-05-29T15:59:07.858Z,0.80
2019-05-29T16:01:38.207Z,1.10
2019-05-29T16:04:07.612Z,1.33
2019-05-29T16:06:36.748Z,1.03
2019-05-29T16:09:08.163Z,1.70
2019-05-29T16:11:37.414Z,1.60
2019-05-29T16:14:06.505Z,1.90
2019-05-29T16:16:35.641Z,2.00
2019-05-29T16:19:04.782Z,1.90
2019-05-29T16:21:33.822Z,1.33
2019-05-29T16:24:03.113Z,1.50
2019-05-29T16:26:32.276Z,1.30
2019-05-29T16:29:01.436Z,1.27
2019-05-29T16:31:30.508Z,1.00
2019-05-29T16:33:59.600Z,1.23
2019-05-29T16:36:28.806Z,1.17
2019-05-29T16:38:57.881Z,1.40
2019-05-29T16:41:26.973Z,1.60
2019-05-29T16:43:56.055Z,2.07
2019-05-29T16:46:25.147Z,2.00
2019-05-29T16:48:54.338Z,1.80
2019-05-29T16:51:26.247Z,1.70
2019-05-29T16:53:55.351Z,2.10
2019-05-29T16:56:24.336Z,1.90
2019-05-29T16:58:53.463Z,2.47
2019-05-29T17:01:23.817Z,1.87
2019-05-29T17:03:53.055Z,3.83
2019-05-29T17:06:22.640Z,1.93
2019-05-29T17:08:51.810Z,2.47
2019-05-29T17:11:23.403Z,1.90
2019-05-29T17:13:52.092Z,1.70
2019-05-29T17:16:22.584Z,1.40
2019-05-29T17:18:51.951Z,1.40
2019-05-29T17:21:21.227Z,1.00
2019-05-29T17:23:50.397Z,2.37
2019-05-29T17:26:20.708Z,1.17
2019-05-29T17:28:49.822Z,1.13
2019-05-29T17:31:18.983Z,1.70
2019-05-29T17:33:48.109Z,2.10
2019-05-29T17:36:17.521Z,1.83
2019-05-29T17:38:46.627Z,1.97
2019-05-29T17:41:17.180Z,2.57
2019-05-29T17:43:46.519Z,1.50
2019-05-29T17:46:15.610Z,2.97
2019-05-29T17:48:50.658Z,1.77
2019-05-29T17:51:19.810Z,1.77
2019-05-29T17:53:49.216Z,1.67
2019-05-29T17:56:29.684Z,1.87
2019-05-29T17:58:49.563Z,1.40
2019-05-29T18:01:19.959Z,1.40
2019-05-29T18:03:49.412Z,1.30
2019-05-29T18:06:18.869Z,2.33
2019-05-29T18:08:48.501Z,2.00
2019-05-29T18:11:19.461Z,1.60
2019-05-29T18:14:03.863Z,1.70
2019-05-29T18:16:58.031Z,1.60
2019-05-29T18:19:44.378Z,1.90
2019-05-29T18:22:25.910Z,2.20
2019-05-29T18:24:59.806Z,2.27
2019-05-29T18:38:15.821Z,1.83
2019-05-29T18:40:45.312Z,2.00
2019-05-29T18:43:17.686Z,1.50
2019-05-29T18:45:47.024Z,1.70
2019-05-29T18:48:19.487Z,1.40
2019-05-29T18:50:48.914Z,1.10
2019-05-29T18:53:25.368Z,3.90
2019-05-29T18:55:52.414Z,2.10
2019-05-29T18:58:24.112Z,1.47
2019-05-29T19:00:56.473Z,1.60
2019-05-29T19:03:32.820Z,1.63
2019-05-29T19:06:05.552Z,1.37
2019-05-29T19:08:36.242Z,1.03
2019-05-29T19:11:08.441Z,1.13
2019-05-29T19:13:38.270Z,0.90
2019-05-29T19:16:10.606Z,1.20
2019-05-29T19:18:45.039Z,1.03
2019-05-29T19:21:16.755Z,1.10
2019-05-29T19:23:46.235Z,0.90
2019-05-29T19:26:15.715Z,1.27
2019-05-29T19:28:45.334Z,1.97
2019-05-29T19:31:15.620Z,1.47
2019-05-29T19:33:45.774Z,1.87
2019-05-29T19:36:15.843Z,1.10
2019-05-29T19:38:45.343Z,1.27
2019-05-29T19:41:15.501Z,1.30
2019-05-29T19:43:45.792Z,1.20
2019-05-29T19:46:19.228Z,1.20
2019-05-29T19:48:48.599Z,1.17
2019-05-29T19:51:20.523Z,1.60
2019-05-29T19:53:50.143Z,1.30
2019-05-29T19:56:19.350Z,1.57
2019-05-29T19:58:48.635Z,1.20
2019-05-29T20:01:30.469Z,1.37
2019-05-29T20:03:49.177Z,1.33
2019-05-29T20:06:18.407Z,1.20
2019-05-29T20:08:47.804Z,1.40
2019-05-29T20:11:16.929Z,1.20
2019-05-29T20:13:46.078Z,1.70
2019-05-29T20:16:15.304Z,1.77
2019-05-29T20:18:44.478Z,2.13
2019-05-29T20:21:13.578Z,1.93
2019-05-29T20:23:42.788Z,1.87
2019-05-29T20:26:12.007Z,1.67
2019-05-29T20:28:41.169Z,2.17
2019-05-29T20:31:12.053Z,1.90
2019-05-29T20:33:41.441Z,2.20
2019-05-29T20:36:10.670Z,2.20
2019-05-29T20:38:39.851Z,2.20
2019-05-29T20:41:09.019Z,2.10
2019-05-29T20:43:39.335Z,1.67
2019-05-29T20:46:08.822Z,2.00
2019-05-29T20:48:38.763Z,2.33
2019-05-29T20:51:07.938Z,2.20
2019-05-29T20:53:37.528Z,2.37
2019-05-29T20:56:06.770Z,2.27
2019-05-29T20:58:37.759Z,2.80
2019-05-29T21:01:06.992Z,2.93
2019-05-29T21:03:36.330Z,2.80
2019-05-29T21:06:05.775Z,3.13
2019-05-29T21:08:35.175Z,3.30
2019-05-29T21:11:04.334Z,3.10
2019-05-29T21:13:33.577Z,3.10
2019-05-29T21:16:02.809Z,3.50
2019-05-29T21:18:32.007Z,3.67
2019-05-29T21:21:01.265Z,3.47
2019-05-29T21:23:30.738Z,4.00
2019-05-29T21:25:59.930Z,8.60
2019-05-29T21:28:39.789Z,6.03
2019-05-29T21:31:00.107Z,4.00
2019-05-29T21:33:29.326Z,4.33
2019-05-29T21:35:58.592Z,6.23
2019-05-29T21:38:27.787Z,5.30
2019-05-29T21:40:57.130Z,4.40
2019-05-29T21:43:26.503Z,3.70
2019-05-29T21:45:55.835Z,4.07
2019-05-29T21:48:25.026Z,3.63
2019-05-29T21:50:54.334Z,3.43
2019-05-29T21:53:23.594Z,3.80
2019-05-29T21:55:52.789Z,3.53
2019-05-29T21:58:21.957Z,3.13
2019-05-29T22:00:51.685Z,3.77
2019-05-29T22:03:21.027Z,3.33
2019-05-29T22:05:50.444Z,3.10
2019-05-29T22:08:19.817Z,2.80
2019-05-29T22:10:49.157Z,2.97
2019-05-29T22:13:18.501Z,3.13
2019-05-29T22:15:47.753Z,3.47
2019-05-29T22:18:17.034Z,3.70
2019-05-29T22:20:46.200Z,2.93
2019-05-29T22:23:15.303Z,3.50
2019-05-29T22:25:44.442Z,3.10
2019-05-29T22:28:13.649Z,3.20
2019-05-29T22:30:42.802Z,2.37
2019-05-29T22:33:11.879Z,3.20
2019-05-29T22:35:41.054Z,2.90
2019-05-29T22:38:10.157Z,3.00
2019-05-29T22:40:39.277Z,2.77
2019-05-29T22:43:08.448Z,2.90
2019-05-29T22:45:37.579Z,2.93
2019-05-29T22:48:06.726Z,2.93
2019-05-29T22:50:35.932Z,2.90
2019-05-29T22:53:05.101Z,3.07
2019-05-29T22:55:34.209Z,3.00
2019-05-29T22:58:05.685Z,6.90
2019-05-29T23:00:34.825Z,5.47
2019-05-29T23:03:03.929Z,7.23
2019-05-29T23:05:33.021Z,4.10
2019-05-29T23:08:02.562Z,3.03
2019-05-29T23:10:31.805Z,2.73
2019-05-29T23:13:03.883Z,2.63
2019-05-29T23:15:32.753Z,2.80
2019-05-29T23:18:02.834Z,2.90
2019-05-29T23:20:31.901Z,2.70
2019-05-29T23:23:01.054Z,2.77
2019-05-29T23:25:32.995Z,2.80
2019-05-29T23:28:03.221Z,3.00
2019-05-29T23:30:32.453Z,2.60
2019-05-29T23:33:01.566Z,2.90
2019-05-29T23:35:30.742Z,2.40
2019-05-29T23:37:59.879Z,2.30
2019-05-29T23:40:28.910Z,1.93
2019-05-29T23:42:57.979Z,2.40
2019-05-29T23:45:27.085Z,1.90
2019-05-29T23:47:57.589Z,2.20
2019-05-29T23:50:26.715Z,2.00
2019-05-29T23:52:55.935Z,2.00
2019-05-29T23:55:25.005Z,2.10
2019-05-29T23:57:54.125Z,1.77
